Buoy 41936

sailwx.info

Track history (hours):
 
Tides and Currents Weather Stations Pressure Air Temp Water Temp Dewpoint Dewpoint Depression Visibility Wind Speed Wind Dir Waves Ship Positions

Drifting buoy 41936

Last reported at 2014-Jul-24 16:00 UTC. Time now 2014-Jul-24 16:58 UTC.
Position N 31°35' W 068°29'.

Barometer 1020.2 mb
Water temperature 28.4 ° C

Date/timePositionNaut miles runAvg speedWind from/ knotsBaromVisibWave heightAir tempDewpointWater temp
2014-Jul-24 16:00N 31°35' W 068°29'1 1.1 1020.2 28.4
2014-Jul-24 15:00N 31°35' W 068°28'2 2.5 1020.1 28.3
2014-Jul-24 14:00N 31°34' W 068°30'0 0.0 1019.9 28.3
2014-Jul-24 11:00N 31°34' W 068°30'1 0.7 1019.8 28.3
2014-Jul-24 10:00N 31°33' W 068°31'1 0.8 1019.5 28.4
2014-Jul-24 09:00N 31°33' W 068°31'0 0.3 1019.5 28.4
2014-Jul-24 08:00N 31°33' W 068°31'2 1.6 1019.1 28.4
2014-Jul-24 07:00N 31°33' W 068°33'0 0.3 1019.0 28.4
2014-Jul-24 06:00N 31°34' W 068°33'0 0.0 1019.5 28.4
2014-Jul-24 03:00N 31°34' W 068°33'1 1.1 1020.6 28.5
2014-Jul-24 02:00N 31°34' W 068°34'0 0.0 1021.1 28.5
2014-Jul-24 01:00N 31°34' W 068°34'0 0.1 1021.5 28.5
2014-Jul-23 23:00N 31°34' W 068°34'0 0.0 1021.3 28.5
2014-Jul-23 22:00N 31°34' W 068°34'0 0.5 1021.1 28.6
2014-Jul-23 21:00N 31°34' W 068°34'1 0.3 1021.0 28.6
2014-Jul-23 18:00N 31°34' W 068°35'2 1.0 1021.8 28.7
2014-Jul-23 16:00N 31°35' W 068°37'1 0.6 1021.8 28.6
2014-Jul-23 14:00N 31°34' W 068°38'0 0.0 1022.3 28.5
2014-Jul-23 13:00N 31°34' W 068°38'1 0.3 1022.0 28.4
2014-Jul-23 10:00N 31°34' W 068°39'1 0.8 1021.8 28.3
2014-Jul-23 09:00N 31°33' W 068°40'0 0.0 1021.7 28.4
2014-Jul-23 08:00N 31°33' W 068°40'0 0.2 1021.7 28.4
2014-Jul-23 07:00N 31°33' W 068°40'1 0.1 1021.7 28.4
2014-Jul-23 02:00N 31°33' W 068°40'0 0.3 1023.1 28.6
2014-Jul-23 01:00N 31°34' W 068°40'1 0.6 1022.8 28.6
2014-Jul-23 00:00N 31°33' W 068°41'1 0.3 1022.5 28.7
2014-Jul-22 21:00N 31°33' W 068°42'1 0.2 1022.4 28.9
2014-Jul-22 16:00N 31°34' W 068°43'0 0.4 1023.4 28.6
2014-Jul-22 15:00N 31°34' W 068°44'0 0.2 1023.5 28.4
2014-Jul-22 14:00N 31°34' W 068°44'1 1.3 1023.4 28.3
2014-Jul-22 13:00N 31°33' W 068°45'1 0.2 1023.3 28.3
2014-Jul-22 10:00N 31°33' W 068°46'0 0.4 1022.3 28.2
2014-Jul-22 09:00N 31°33' W 068°45'1 0.7 1021.9 28.2
2014-Jul-22 07:00N 31°32' W 068°46'1 0.2 1021.6 28.3
2014-Jul-22 02:00N 31°31' W 068°46'2 1.8 1023.2 28.3
2014-Jul-22 01:00N 31°32' W 068°48'1 0.4 1023.0 28.4
2014-Jul-21 23:00N 31°31' W 068°47'1 0.9 1022.5 28.5
2014-Jul-21 22:00N 31°31' W 068°46'1 0.5 1022.3 28.5
2014-Jul-21 21:00N 31°30' W 068°47'1 0.4 1022.1 28.5
2014-Jul-21 18:00N 31°31' W 068°48'0 0.0 1022.6 28.5
2014-Jul-21 17:00N 31°31' W 068°48'1 0.5 1022.9 28.4
2014-Jul-21 16:00N 31°31' W 068°48'0 0.2 1023.0 28.4
2014-Jul-21 15:00N 31°30' W 068°48'0 0.0 1023.2 28.3
2014-Jul-21 14:00N 31°30' W 068°48'2 2.0 1022.9 28.2
2014-Jul-21 13:00N 31°29' W 068°50'0 0.0 1022.7 28.1
2014-Jul-21 11:00N 31°29' W 068°50'1 0.7 1022.3 28.1
2014-Jul-21 10:00N 31°29' W 068°50'1 1.1 1021.9 28.1
2014-Jul-21 09:00N 31°28' W 068°51'2 1.2 1021.3 28.1
2014-Jul-21 07:00N 31°26' W 068°49'1 0.2 1021.2 28.1
2014-Jul-21 03:00N 31°26' W 068°49'0 0.0 1022.1 28.2
2014-Jul-21 02:00N 31°26' W 068°49'0 0.4 1022.2 28.2
2014-Jul-21 01:00N 31°27' W 068°49'0 0.0 1021.9 28.2
2014-Jul-21 00:00N 31°27' W 068°49'0 0.1 1021.5 28.2
2014-Jul-20 23:00N 31°27' W 068°49'0 0.3 1021.6 28.3
2014-Jul-20 22:00N 31°27' W 068°50'0 0.2 1021.4 28.3
2014-Jul-20 21:00N 31°27' W 068°50'1 0.3 1021.2 28.3
2014-Jul-20 19:00N 31°27' W 068°50'1 0.4 1021.9 28.3
2014-Jul-20 15:00N 31°26' W 068°52'1 0.8 1022.6 28.1
2014-Jul-20 14:00N 31°25' W 068°51'2 0.7 1022.2 28.1
2014-Jul-20 11:00N 31°24' W 068°53'0 0.4 1021.4 28.0
2014-Jul-20 10:00N 31°23' W 068°53'0 0.4 1020.8 28.0
2014-Jul-20 09:00N 31°23' W 068°53'0 0.4 1020.8 28.0
2014-Jul-20 08:00N 31°23' W 068°53'2 2.5 1021.0 28.1
2014-Jul-20 07:00N 31°20' W 068°53'1 0.3 1021.4 28.1
2014-Jul-20 03:00N 31°21' W 068°52'1 0.4 1023.1 28.1
2014-Jul-20 01:00N 31°21' W 068°53'1 1.0 1022.8 28.1
2014-Jul-20 00:00N 31°20' W 068°53'0 0.0 1022.5 28.1
2014-Jul-19 23:00N 31°20' W 068°53'0 0.0 1022.1 28.2
2014-Jul-19 22:00N 31°20' W 068°53'0 0.0 1021.8 28.2
2014-Jul-19 21:00N 31°20' W 068°53'1 0.6 1021.9 28.2
2014-Jul-19 20:00N 31°20' W 068°53'1 1.1 1022.0 28.2
2014-Jul-19 19:00N 31°19' W 068°54'0 0.0 1022.0 28.2
2014-Jul-19 16:00N 31°19' W 068°54'1 1.5 1022.6 28.1
2014-Jul-19 15:00N 31°18' W 068°55'0 0.0 1022.7 28.1
2014-Jul-19 11:00N 31°18' W 068°55'1 1.1 1022.7 28.1
2014-Jul-19 10:00N 31°17' W 068°56'0 0.0 1022.4 28.1
2014-Jul-19 09:00N 31°17' W 068°56'0 0.5 1022.2 28.1
2014-Jul-19 08:00N 31°17' W 068°56'3 3.1 1021.7 28.1
2014-Jul-19 07:00N 31°14' W 068°56'0 0.0 1021.7 28.2
2014-Jul-19 06:00N 31°14' W 068°56'0 0.0 1022.1 28.2
2014-Jul-19 03:00N 31°14' W 068°56'1 1.0 1022.8 28.2
2014-Jul-19 02:00N 31°13' W 068°55'0 0.0 1022.8 28.2
2014-Jul-19 01:00N 31°13' W 068°55'0 0.0 1022.4 28.2
2014-Jul-19 00:00N 31°13' W 068°55'0 0.0 1022.0 28.3
2014-Jul-18 23:00N 31°13' W 068°55'1 0.2 1021.6 28.3
2014-Jul-18 20:00N 31°13' W 068°56'0 0.2 1021.2 28.3
2014-Jul-18 19:00N 31°13' W 068°56'0 0.2 1021.2 28.3
2014-Jul-18 17:00N 31°12' W 068°56'1 0.6 1021.6 28.3
2014-Jul-18 15:00N 31°12' W 068°57'2 1.8 1022.4 28.2
2014-Jul-18 14:00N 31°10' W 068°58'1 0.3 1022.4 28.2
2014-Jul-18 10:00N 31°09' W 068°59'0 0.0 1021.3 28.3
2014-Jul-18 09:00N 31°09' W 068°59'0 0.5 1020.6 28.3
2014-Jul-18 08:00N 31°09' W 068°60'1 0.6 1020.2 28.3
2014-Jul-18 06:00N 31°08' W 069°00'3 0.8 1020.3 28.4
2014-Jul-18 02:00N 31°04' W 069°00'0 0.0 1021.1 28.5
2014-Jul-18 01:00N 31°04' W 069°00'1 0.7 1021.0 28.5
2014-Jul-17 23:00N 31°04' W 068°59'0 0.4 1020.4 28.5
2014-Jul-17 22:00N 31°04' W 068°59'1 0.3 1019.9 28.5
2014-Jul-17 20:00N 31°03' W 068°59'1 0.6 1020.2 28.6
2014-Jul-17 19:00N 31°04' W 068°59'0 0.2 1020.3 28.6
2014-Jul-17 16:00N 31°03' W 068°59'0 0.0 1020.4 28.6
2014-Jul-17 15:00N 31°03' W 068°59'0 0.2 1020.2 28.6
2014-Jul-17 14:00N 31°03' W 068°59'0 0.0 1020.0 28.5
2014-Jul-17 13:00N 31°03' W 068°59'2 0.8 1019.7 28.5
2014-Jul-17 11:00N 31°03' W 069°01'1 1.4 1019.3 28.5
2014-Jul-17 10:00N 31°02' W 069°02'2 0.8 1018.8 28.5
2014-Jul-17 08:00N 31°00' W 069°03'0 0.0 1018.1 28.6
2014-Jul-17 06:00N 31°00' W 069°03'4 0.7 1018.6 28.7
2014-Jul-17 01:00N 30°57' W 069°01'1 0.9 1018.7 29.1
2014-Jul-17 00:00N 30°57' W 068°60'0 0.1 1018.5 29.2
2014-Jul-16 22:00N 30°57' W 069°00'0 0.2 1018.1 29.4
2014-Jul-16 20:00N 30°57' W 068°60'0 0.1 1017.9 29.6
2014-Jul-16 19:00N 30°57' W 068°60'0 0.4 1018.0 29.7
2014-Jul-16 18:00N 30°57' W 068°59'1 0.4 1018.2 29.5
2014-Jul-16 16:00N 30°58' W 069°00'0 0.4 1018.3 29.4
2014-Jul-16 15:00N 30°58' W 068°60'1 0.9 1017.9 29.2
2014-Jul-16 14:00N 30°57' W 069°01'0 0.0 1017.5 29.0
2014-Jul-16 13:00N 30°57' W 069°01'1 0.4 1017.5 28.6
2014-Jul-16 11:00N 30°57' W 069°01'1 0.8 1017.4 28.5
2014-Jul-16 10:00N 30°56' W 069°02'1 0.8 1017.5 28.5
2014-Jul-16 09:00N 30°56' W 069°03'0 0.2 1017.1 28.5
2014-Jul-16 08:00N 30°56' W 069°03'1 0.5 1016.7 28.5
2014-Jul-16 06:00N 30°55' W 069°03'0 0.0 1016.8 28.6
2014-Jul-16 05:00N 30°55' W 069°03'3 1.4 1017.6 28.6
2014-Jul-16 03:00N 30°52' W 069°01'1 0.6 1017.9 28.6
2014-Jul-16 02:00N 30°52' W 069°01'2 2.0 1018.0 28.7
2014-Jul-16 01:00N 30°51' W 068°59'0 0.0 1017.7 28.7
2014-Jul-16 00:00N 30°51' W 068°59'1 1.3 1017.5 28.7
2014-Jul-15 23:00N 30°51' W 069°00'0 0.1 1017.7 28.8
2014-Jul-15 22:00N 30°51' W 069°00'1 0.5 1017.7 28.9
2014-Jul-15 20:00N 30°52' W 068°59'0 0.4 1017.8 28.9
2014-Jul-15 19:00N 30°52' W 068°59'0 0.0 1017.9 28.8
2014-Jul-15 18:00N 30°52' W 068°59'1 0.2 1018.4 28.8
2014-Jul-15 15:00N 30°53' W 068°60'1 0.7 1019.0 28.6
2014-Jul-15 14:00N 30°52' W 068°59'3 1.3 1019.0 28.4
2014-Jul-15 12:00N 30°51' W 069°02'1 0.7 1018.7 28.5
2014-Jul-15 11:00N 30°51' W 069°02'1 0.7 1018.5 28.4
2014-Jul-15 10:00N 30°50' W 069°02'1 1.0 1018.5 28.4
2014-Jul-15 09:00N 30°49' W 069°03'0 0.1 1018.3 28.5
2014-Jul-15 08:00N 30°49' W 069°03'0 0.0 1018.4 28.5
2014-Jul-15 07:00N 30°49' W 069°03'3 3.1 1018.5 28.5
2014-Jul-15 06:00N 30°46' W 069°02'1 0.3 1018.7 28.6
2014-Jul-15 03:00N 30°47' W 069°01'1 0.3 1020.1 28.8
2014-Jul-15 01:00N 30°46' W 069°01'0 0.0 1020.1 29.0
2014-Jul-15 00:00N 30°46' W 069°01'1 1.1 1020.1 28.8
2014-Jul-14 23:00N 30°46' W 069°00'0 0.1 1020.1 28.9
2014-Jul-14 21:00N 30°46' W 068°60'1 0.2 1020.0 29.1
2014-Jul-14 18:00N 30°47' W 069°00'0 0.0 1020.3 29.3
2014-Jul-14 16:00N 30°47' W 069°00'   1021.1 28.9
Track history (hours):
 
Tides and Currents Weather Stations Pressure Air Temp Water Temp Dewpoint Dewpoint Depression Visibility Wind Speed Wind Dir Waves Ship Positions

Drifting buoy 41936

Last reported at 2014-Jul-24 16:00 UTC. Time now 2014-Jul-24 16:58 UTC.
Position N 31°35' W 068°29'.

Barometer 1020.2 mb
Water temperature 28.4 ° C

Date/timePositionNaut miles runAvg speedWind from/ knotsBaromVisibWave heightAir tempDewpointWater temp
2014-Jul-24 16:00N 31°35' W 068°29'1 1.1 1020.2 28.4
2014-Jul-24 15:00N 31°35' W 068°28'2 2.5 1020.1 28.3
2014-Jul-24 14:00N 31°34' W 068°30'0 0.0 1019.9 28.3
2014-Jul-24 11:00N 31°34' W 068°30'1 0.7 1019.8 28.3
2014-Jul-24 10:00N 31°33' W 068°31'1 0.8 1019.5 28.4
2014-Jul-24 09:00N 31°33' W 068°31'0 0.3 1019.5 28.4
2014-Jul-24 08:00N 31°33' W 068°31'2 1.6 1019.1 28.4
2014-Jul-24 07:00N 31°33' W 068°33'0 0.3 1019.0 28.4
2014-Jul-24 06:00N 31°34' W 068°33'0 0.0 1019.5 28.4
2014-Jul-24 03:00N 31°34' W 068°33'1 1.1 1020.6 28.5
2014-Jul-24 02:00N 31°34' W 068°34'0 0.0 1021.1 28.5
2014-Jul-24 01:00N 31°34' W 068°34'0 0.1 1021.5 28.5
2014-Jul-23 23:00N 31°34' W 068°34'0 0.0 1021.3 28.5
2014-Jul-23 22:00N 31°34' W 068°34'0 0.5 1021.1 28.6
2014-Jul-23 21:00N 31°34' W 068°34'1 0.3 1021.0 28.6
2014-Jul-23 18:00N 31°34' W 068°35'2 1.0 1021.8 28.7
2014-Jul-23 16:00N 31°35' W 068°37'1 0.6 1021.8 28.6
2014-Jul-23 14:00N 31°34' W 068°38'0 0.0 1022.3 28.5
2014-Jul-23 13:00N 31°34' W 068°38'1 0.3 1022.0 28.4
2014-Jul-23 10:00N 31°34' W 068°39'1 0.8 1021.8 28.3
2014-Jul-23 09:00N 31°33' W 068°40'0 0.0 1021.7 28.4
2014-Jul-23 08:00N 31°33' W 068°40'0 0.2 1021.7 28.4
2014-Jul-23 07:00N 31°33' W 068°40'1 0.1 1021.7 28.4
2014-Jul-23 02:00N 31°33' W 068°40'0 0.3 1023.1 28.6
2014-Jul-23 01:00N 31°34' W 068°40'1 0.6 1022.8 28.6
2014-Jul-23 00:00N 31°33' W 068°41'1 0.3 1022.5 28.7
2014-Jul-22 21:00N 31°33' W 068°42'1 0.2 1022.4 28.9
2014-Jul-22 16:00N 31°34' W 068°43'0 0.4 1023.4 28.6
2014-Jul-22 15:00N 31°34' W 068°44'0 0.2 1023.5 28.4
2014-Jul-22 14:00N 31°34' W 068°44'1 1.3 1023.4 28.3
2014-Jul-22 13:00N 31°33' W 068°45'1 0.2 1023.3 28.3
2014-Jul-22 10:00N 31°33' W 068°46'0 0.4 1022.3 28.2
2014-Jul-22 09:00N 31°33' W 068°45'1 0.7 1021.9 28.2
2014-Jul-22 07:00N 31°32' W 068°46'1 0.2 1021.6 28.3
2014-Jul-22 02:00N 31°31' W 068°46'2 1.8 1023.2 28.3
2014-Jul-22 01:00N 31°32' W 068°48'1 0.4 1023.0 28.4
2014-Jul-21 23:00N 31°31' W 068°47'1 0.9 1022.5 28.5
2014-Jul-21 22:00N 31°31' W 068°46'1 0.5 1022.3 28.5
2014-Jul-21 21:00N 31°30' W 068°47'1 0.4 1022.1 28.5
2014-Jul-21 18:00N 31°31' W 068°48'0 0.0 1022.6 28.5
2014-Jul-21 17:00N 31°31' W 068°48'1 0.5 1022.9 28.4
2014-Jul-21 16:00N 31°31' W 068°48'0 0.2 1023.0 28.4
2014-Jul-21 15:00N 31°30' W 068°48'0 0.0 1023.2 28.3
2014-Jul-21 14:00N 31°30' W 068°48'2 2.0 1022.9 28.2
2014-Jul-21 13:00N 31°29' W 068°50'0 0.0 1022.7 28.1
2014-Jul-21 11:00N 31°29' W 068°50'1 0.7 1022.3 28.1
2014-Jul-21 10:00N 31°29' W 068°50'1 1.1 1021.9 28.1
2014-Jul-21 09:00N 31°28' W 068°51'2 1.2 1021.3 28.1
2014-Jul-21 07:00N 31°26' W 068°49'1 0.2 1021.2 28.1
2014-Jul-21 03:00N 31°26' W 068°49'0 0.0 1022.1 28.2
2014-Jul-21 02:00N 31°26' W 068°49'0 0.4 1022.2 28.2
2014-Jul-21 01:00N 31°27' W 068°49'0 0.0 1021.9 28.2
2014-Jul-21 00:00N 31°27' W 068°49'0 0.1 1021.5 28.2
2014-Jul-20 23:00N 31°27' W 068°49'0 0.3 1021.6 28.3
2014-Jul-20 22:00N 31°27' W 068°50'0 0.2 1021.4 28.3
2014-Jul-20 21:00N 31°27' W 068°50'1 0.3 1021.2 28.3
2014-Jul-20 19:00N 31°27' W 068°50'1 0.4 1021.9 28.3
2014-Jul-20 15:00N 31°26' W 068°52'1 0.8 1022.6 28.1
2014-Jul-20 14:00N 31°25' W 068°51'2 0.7 1022.2 28.1
2014-Jul-20 11:00N 31°24' W 068°53'0 0.4 1021.4 28.0
2014-Jul-20 10:00N 31°23' W 068°53'0 0.4 1020.8 28.0
2014-Jul-20 09:00N 31°23' W 068°53'0 0.4 1020.8 28.0
2014-Jul-20 08:00N 31°23' W 068°53'2 2.5 1021.0 28.1
2014-Jul-20 07:00N 31°20' W 068°53'1 0.3 1021.4 28.1
2014-Jul-20 03:00N 31°21' W 068°52'1 0.4 1023.1 28.1
2014-Jul-20 01:00N 31°21' W 068°53'1 1.0 1022.8 28.1
2014-Jul-20 00:00N 31°20' W 068°53'0 0.0 1022.5 28.1
2014-Jul-19 23:00N 31°20' W 068°53'0 0.0 1022.1 28.2
2014-Jul-19 22:00N 31°20' W 068°53'0 0.0 1021.8 28.2
2014-Jul-19 21:00N 31°20' W 068°53'1 0.6 1021.9 28.2
2014-Jul-19 20:00N 31°20' W 068°53'1 1.1 1022.0 28.2
2014-Jul-19 19:00N 31°19' W 068°54'0 0.0 1022.0 28.2
2014-Jul-19 16:00N 31°19' W 068°54'1 1.5 1022.6 28.1
2014-Jul-19 15:00N 31°18' W 068°55'0 0.0 1022.7 28.1
2014-Jul-19 11:00N 31°18' W 068°55'1 1.1 1022.7 28.1
2014-Jul-19 10:00N 31°17' W 068°56'0 0.0 1022.4 28.1
2014-Jul-19 09:00N 31°17' W 068°56'0 0.5 1022.2 28.1
2014-Jul-19 08:00N 31°17' W 068°56'3 3.1 1021.7 28.1
2014-Jul-19 07:00N 31°14' W 068°56'0 0.0 1021.7 28.2
2014-Jul-19 06:00N 31°14' W 068°56'0 0.0 1022.1 28.2
2014-Jul-19 03:00N 31°14' W 068°56'1 1.0 1022.8 28.2
2014-Jul-19 02:00N 31°13' W 068°55'0 0.0 1022.8 28.2
2014-Jul-19 01:00N 31°13' W 068°55'0 0.0 1022.4 28.2
2014-Jul-19 00:00N 31°13' W 068°55'0 0.0 1022.0 28.3
2014-Jul-18 23:00N 31°13' W 068°55'1 0.2 1021.6 28.3
2014-Jul-18 20:00N 31°13' W 068°56'0 0.2 1021.2 28.3
2014-Jul-18 19:00N 31°13' W 068°56'0 0.2 1021.2 28.3
2014-Jul-18 17:00N 31°12' W 068°56'1 0.6 1021.6 28.3
2014-Jul-18 15:00N 31°12' W 068°57'2 1.8 1022.4 28.2
2014-Jul-18 14:00N 31°10' W 068°58'1 0.3 1022.4 28.2
2014-Jul-18 10:00N 31°09' W 068°59'0 0.0 1021.3 28.3
2014-Jul-18 09:00N 31°09' W 068°59'0 0.5 1020.6 28.3
2014-Jul-18 08:00N 31°09' W 068°60'1 0.6 1020.2 28.3
2014-Jul-18 06:00N 31°08' W 069°00'3 0.8 1020.3 28.4
2014-Jul-18 02:00N 31°04' W 069°00'0 0.0 1021.1 28.5
2014-Jul-18 01:00N 31°04' W 069°00'1 0.7 1021.0 28.5
2014-Jul-17 23:00N 31°04' W 068°59'0 0.4 1020.4 28.5
2014-Jul-17 22:00N 31°04' W 068°59'1 0.3 1019.9 28.5
2014-Jul-17 20:00N 31°03' W 068°59'1 0.6 1020.2 28.6
2014-Jul-17 19:00N 31°04' W 068°59'0 0.2 1020.3 28.6
2014-Jul-17 16:00N 31°03' W 068°59'0 0.0 1020.4 28.6
2014-Jul-17 15:00N 31°03' W 068°59'0 0.2 1020.2 28.6
2014-Jul-17 14:00N 31°03' W 068°59'0 0.0 1020.0 28.5
2014-Jul-17 13:00N 31°03' W 068°59'2 0.8 1019.7 28.5
2014-Jul-17 11:00N 31°03' W 069°01'1 1.4 1019.3 28.5
2014-Jul-17 10:00N 31°02' W 069°02'2 0.8 1018.8 28.5
2014-Jul-17 08:00N 31°00' W 069°03'0 0.0 1018.1 28.6
2014-Jul-17 06:00N 31°00' W 069°03'4 0.7 1018.6 28.7
2014-Jul-17 01:00N 30°57' W 069°01'1 0.9 1018.7 29.1
2014-Jul-17 00:00N 30°57' W 068°60'0 0.1 1018.5 29.2
2014-Jul-16 22:00N 30°57' W 069°00'0 0.2 1018.1 29.4
2014-Jul-16 20:00N 30°57' W 068°60'0 0.1 1017.9 29.6
2014-Jul-16 19:00N 30°57' W 068°60'0 0.4 1018.0 29.7
2014-Jul-16 18:00N 30°57' W 068°59'1 0.4 1018.2 29.5
2014-Jul-16 16:00N 30°58' W 069°00'0 0.4 1018.3 29.4
2014-Jul-16 15:00N 30°58' W 068°60'1 0.9 1017.9 29.2
2014-Jul-16 14:00N 30°57' W 069°01'0 0.0 1017.5 29.0
2014-Jul-16 13:00N 30°57' W 069°01'1 0.4 1017.5 28.6
2014-Jul-16 11:00N 30°57' W 069°01'1 0.8 1017.4 28.5
2014-Jul-16 10:00N 30°56' W 069°02'1 0.8 1017.5 28.5
2014-Jul-16 09:00N 30°56' W 069°03'0 0.2 1017.1 28.5
2014-Jul-16 08:00N 30°56' W 069°03'1 0.5 1016.7 28.5
2014-Jul-16 06:00N 30°55' W 069°03'0 0.0 1016.8 28.6
2014-Jul-16 05:00N 30°55' W 069°03'3 1.4 1017.6 28.6
2014-Jul-16 03:00N 30°52' W 069°01'1 0.6 1017.9 28.6
2014-Jul-16 02:00N 30°52' W 069°01'2 2.0 1018.0 28.7
2014-Jul-16 01:00N 30°51' W 068°59'0 0.0 1017.7 28.7
2014-Jul-16 00:00N 30°51' W 068°59'1 1.3 1017.5 28.7
2014-Jul-15 23:00N 30°51' W 069°00'0 0.1 1017.7 28.8
2014-Jul-15 22:00N 30°51' W 069°00'1 0.5 1017.7 28.9
2014-Jul-15 20:00N 30°52' W 068°59'0 0.4 1017.8 28.9
2014-Jul-15 19:00N 30°52' W 068°59'0 0.0 1017.9 28.8
2014-Jul-15 18:00N 30°52' W 068°59'1 0.2 1018.4 28.8
2014-Jul-15 15:00N 30°53' W 068°60'1 0.7 1019.0 28.6
2014-Jul-15 14:00N 30°52' W 068°59'3 1.3 1019.0 28.4
2014-Jul-15 12:00N 30°51' W 069°02'1 0.7 1018.7 28.5
2014-Jul-15 11:00N 30°51' W 069°02'1 0.7 1018.5 28.4
2014-Jul-15 10:00N 30°50' W 069°02'1 1.0 1018.5 28.4
2014-Jul-15 09:00N 30°49' W 069°03'0 0.1 1018.3 28.5
2014-Jul-15 08:00N 30°49' W 069°03'0 0.0 1018.4 28.5
2014-Jul-15 07:00N 30°49' W 069°03'3 3.1 1018.5 28.5
2014-Jul-15 06:00N 30°46' W 069°02'1 0.3 1018.7 28.6
2014-Jul-15 03:00N 30°47' W 069°01'1 0.3 1020.1 28.8
2014-Jul-15 01:00N 30°46' W 069°01'0 0.0 1020.1 29.0
2014-Jul-15 00:00N 30°46' W 069°01'1 1.1 1020.1 28.8
2014-Jul-14 23:00N 30°46' W 069°00'0 0.1 1020.1 28.9
2014-Jul-14 21:00N 30°46' W 068°60'1 0.2 1020.0 29.1
2014-Jul-14 18:00N 30°47' W 069°00'0 0.0 1020.3 29.3
2014-Jul-14 16:00N 30°47' W 069°00'   1021.1 28.9

Dump ship's entire track history